createdAt,value
2022-10-20T00:02:05.770Z,3.98
2022-10-20T00:04:06.947Z,3.98
2022-10-20T00:06:08.334Z,3.98
2022-10-20T00:08:09.730Z,3.98
2022-10-20T00:12:12.083Z,3.98
2022-10-20T00:14:13.133Z,3.98
2022-10-20T00:16:14.091Z,3.98
2022-10-20T00:18:15.973Z,3.98
2022-10-20T00:20:17.893Z,3.98
2022-10-20T00:22:19.017Z,3.98
2022-10-20T00:24:20.292Z,3.98
2022-10-20T00:28:23.441Z,3.98
2022-10-20T00:30:25.648Z,3.98
2022-10-20T00:32:26.364Z,3.98
2022-10-20T00:34:27.887Z,3.98
2022-10-20T00:36:28.909Z,3.98
2022-10-20T00:38:30.605Z,3.98
2022-10-20T00:39:14.481Z,3.98
2022-10-20T00:41:15.688Z,3.98
2022-10-20T00:43:16.677Z,3.98
2022-10-20T00:45:18.029Z,3.98
2022-10-20T00:49:21.286Z,3.98
2022-10-20T00:51:23.242Z,3.98
2022-10-20T00:55:25.450Z,3.98
2022-10-20T00:57:26.638Z,3.98
2022-10-20T00:59:28.441Z,3.98
2022-10-20T01:01:30.349Z,3.98
2022-10-20T01:05:33.128Z,3.98
2022-10-20T01:07:34.826Z,3.98
2022-10-20T01:09:36.460Z,3.98
2022-10-20T01:11:38.319Z,3.98
2022-10-20T01:13:39.995Z,3.97
2022-10-20T01:15:41.651Z,3.98
2022-10-20T01:17:43.206Z,3.98
2022-10-20T01:21:45.880Z,3.98
2022-10-20T01:23:47.841Z,3.97
2022-10-20T01:25:49.690Z,3.97
2022-10-20T01:27:50.927Z,3.97
2022-10-20T01:31:53.729Z,3.97
2022-10-20T01:33:55.592Z,3.97
2022-10-20T01:35:56.865Z,3.97
2022-10-20T01:37:58.641Z,3.97
2022-10-20T01:40:00.313Z,3.97
2022-10-20T01:42:01.622Z,3.97
2022-10-20T01:44:02.775Z,3.97
2022-10-20T01:48:06.535Z,3.97
2022-10-20T01:50:07.651Z,3.97
2022-10-20T01:54:10.758Z,3.97
2022-10-20T01:56:12.002Z,3.97
2022-10-20T01:58:13.426Z,3.97
2022-10-20T02:00:14.815Z,3.97
2022-10-20T02:04:17.508Z,3.96
2022-10-20T02:06:18.947Z,3.97
2022-10-20T02:08:20.536Z,3.97
2022-10-20T02:10:21.806Z,3.97
2022-10-20T02:14:24.849Z,3.96
2022-10-20T02:16:25.885Z,3.97
2022-10-20T02:18:27.636Z,3.96
2022-10-20T02:20:29.270Z,3.97
2022-10-20T02:22:30.859Z,3.96
2022-10-20T02:24:32.315Z,3.96
2022-10-20T02:26:33.659Z,3.97
2022-10-20T02:30:36.497Z,3.96
2022-10-20T02:32:38.169Z,3.96
2022-10-20T02:34:40.868Z,3.96
2022-10-20T02:36:40.925Z,3.96
2022-10-20T02:38:42.597Z,3.96
2022-10-20T02:40:44.347Z,3.96
2022-10-20T02:42:45.732Z,3.96
2022-10-20T02:46:49.088Z,3.96
2022-10-20T02:48:50.295Z,3.96
2022-10-20T02:50:52.220Z,3.96
2022-10-20T02:52:53.491Z,3.96
2022-10-20T02:56:56.462Z,3.96
2022-10-20T02:58:57.889Z,3.96
2022-10-20T03:03:00.620Z,3.96
2022-10-20T03:05:02.206Z,3.96
2022-10-20T03:07:04.071Z,3.96
2022-10-20T03:09:06.249Z,3.96
2022-10-20T03:13:09.312Z,3.96
2022-10-20T03:15:11.127Z,3.96
2022-10-20T03:17:12.519Z,3.96
2022-10-20T03:19:14.141Z,3.96
2022-10-20T03:21:15.344Z,3.96
2022-10-20T03:23:17.705Z,3.96
2022-10-20T03:25:18.288Z,3.96
2022-10-20T03:29:20.510Z,3.95
2022-10-20T03:31:22.435Z,3.96
2022-10-20T03:33:23.666Z,3.96
2022-10-20T03:35:25.584Z,3.96
2022-10-20T03:37:26.766Z,3.96
2022-10-20T03:39:27.954Z,3.96
2022-10-20T03:41:28.949Z,3.95
2022-10-20T03:45:31.791Z,3.95
2022-10-20T03:47:33.235Z,3.95
2022-10-20T03:49:34.659Z,3.96
2022-10-20T03:51:36.154Z,3.95
2022-10-20T03:55:38.555Z,3.95
2022-10-20T03:57:39.624Z,3.95
2022-10-20T04:01:42.461Z,3.95
2022-10-20T04:03:44.209Z,3.95
2022-10-20T04:05:45.578Z,3.95
2022-10-20T04:07:47.512Z,3.95
2022-10-20T04:11:50.513Z,3.95
2022-10-20T04:13:51.775Z,3.95
2022-10-20T04:15:53.092Z,3.95
2022-10-20T04:17:54.730Z,3.95
2022-10-20T04:19:55.973Z,3.95
2022-10-20T04:21:57.430Z,3.95
2022-10-20T04:23:58.787Z,3.95
2022-10-20T04:28:01.256Z,3.95
2022-10-20T04:30:02.337Z,3.95
2022-10-20T04:32:04.179Z,3.95
2022-10-20T04:34:05.840Z,3.95
2022-10-20T04:38:09.643Z,3.95
2022-10-20T04:40:11.199Z,3.95
2022-10-20T04:44:13.992Z,3.95
2022-10-20T04:46:15.886Z,3.95
2022-10-20T04:48:17.785Z,3.94
2022-10-20T04:50:19.275Z,3.94
2022-10-20T04:54:21.703Z,3.94
2022-10-20T04:56:23.271Z,3.94
2022-10-20T05:00:25.477Z,3.94
2022-10-20T05:02:26.972Z,3.94
2022-10-20T05:04:28.678Z,3.94
2022-10-20T05:06:30.492Z,3.94
2022-10-20T05:10:35.835Z,3.94
2022-10-20T05:12:34.389Z,3.94
2022-10-20T05:14:36.128Z,3.94
2022-10-20T05:16:37.698Z,3.94
2022-10-20T05:20:41.056Z,3.94
2022-10-20T05:22:41.712Z,3.94
2022-10-20T05:24:43.385Z,3.94
2022-10-20T05:26:45.138Z,3.94
2022-10-20T05:28:47.110Z,3.94
2022-10-20T05:30:48.667Z,3.94
2022-10-20T05:32:50.435Z,3.94
2022-10-20T05:36:53.151Z,3.94
2022-10-20T05:38:55.017Z,3.94
2022-10-20T05:41:05.408Z,3.94
2022-10-20T05:42:58.154Z,3.94
2022-10-20T05:44:59.844Z,3.94
2022-10-20T05:47:01.549Z,3.94
2022-10-20T05:49:03.375Z,3.94
2022-10-20T05:53:05.373Z,3.94
2022-10-20T05:55:06.744Z,3.94
2022-10-20T05:57:08.293Z,3.94
2022-10-20T05:59:09.505Z,3.94
2022-10-20T06:01:11.127Z,3.94
2022-10-20T06:05:14.068Z,3.94
2022-10-20T06:09:16.876Z,3.94
2022-10-20T06:11:17.865Z,3.94
2022-10-20T06:13:19.111Z,3.93
2022-10-20T06:17:22.108Z,3.93
2022-10-20T06:19:23.587Z,3.94
2022-10-20T06:21:24.781Z,3.93
2022-10-20T06:25:27.748Z,3.93
2022-10-20T06:27:29.135Z,3.93
2022-10-20T06:29:30.265Z,3.93
2022-10-20T06:31:31.693Z,3.93
2022-10-20T06:35:34.309Z,3.93
2022-10-20T06:37:35.628Z,3.93
2022-10-20T06:39:37.130Z,3.93
2022-10-20T06:41:38.624Z,3.93
2022-10-20T06:43:40.198Z,3.93
2022-10-20T06:45:41.490Z,3.93
2022-10-20T06:47:43.041Z,3.93
2022-10-20T06:51:45.518Z,3.93
2022-10-20T06:53:47.060Z,3.93
2022-10-20T06:55:47.979Z,3.93
2022-10-20T06:57:49.470Z,3.93
2022-10-20T07:01:51.624Z,3.93
2022-10-20T07:03:52.661Z,3.94
2022-10-20T07:05:54.024Z,3.93
2022-10-20T07:07:55.668Z,3.93
2022-10-20T07:09:56.661Z,3.93
2022-10-20T07:11:58.585Z,3.93
2022-10-20T07:13:59.632Z,3.93
2022-10-20T07:18:02.765Z,3.93
2022-10-20T07:20:03.894Z,3.93
2022-10-20T07:22:05.302Z,3.93
2022-10-20T07:24:06.405Z,3.93
2022-10-20T07:26:51.859Z,3.93
2022-10-20T07:28:55.882Z,3.93
2022-10-20T07:30:55.167Z,3.92
2022-10-20T07:32:56.266Z,3.93
2022-10-20T07:34:57.865Z,3.93
2022-10-20T07:36:59.310Z,3.92
2022-10-20T07:39:01.055Z,3.93
2022-10-20T07:41:02.097Z,3.93
2022-10-20T07:45:05.036Z,3.93
2022-10-20T07:47:06.605Z,3.93
2022-10-20T07:49:42.726Z,3.93
2022-10-20T07:51:09.450Z,3.93
2022-10-20T07:55:32.145Z,3.93
2022-10-20T07:57:13.510Z,3.93
2022-10-20T07:59:14.983Z,3.93
2022-10-20T08:01:15.947Z,3.93
2022-10-20T08:03:16.910Z,3.92
2022-10-20T08:05:18.238Z,3.92
2022-10-20T08:07:19.379Z,3.93
2022-10-20T08:09:20.886Z,3.94
2022-10-20T08:11:22.307Z,3.94
2022-10-20T08:13:23.192Z,3.94
2022-10-20T08:15:24.463Z,3.94
2022-10-20T08:17:25.777Z,3.95
2022-10-20T08:19:28.665Z,3.95
2022-10-20T08:21:29.040Z,3.94
2022-10-20T08:23:30.840Z,3.94
2022-10-20T08:27:33.916Z,3.94
2022-10-20T08:29:35.526Z,3.95
2022-10-20T08:31:36.789Z,3.94
2022-10-20T08:33:38.366Z,3.95
2022-10-20T08:35:39.428Z,3.95
2022-10-20T08:39:42.231Z,3.95
2022-10-20T08:41:55.707Z,3.94
2022-10-20T08:43:45.407Z,3.94
2022-10-20T08:45:47.065Z,3.95
2022-10-20T08:47:48.022Z,3.95
2022-10-20T08:49:49.552Z,3.94
2022-10-20T08:53:52.555Z,3.95
2022-10-20T08:55:54.187Z,3.95
2022-10-20T08:59:56.628Z,3.95
2022-10-20T09:01:58.442Z,3.96
2022-10-20T09:03:59.351Z,3.97
2022-10-20T09:06:00.635Z,3.97
2022-10-20T09:10:03.005Z,3.97
2022-10-20T09:12:04.680Z,3.97
2022-10-20T09:14:05.558Z,3.97
2022-10-20T09:16:07.330Z,3.98
2022-10-20T09:20:10.630Z,3.97
2022-10-20T09:22:11.716Z,3.98
2022-10-20T09:24:12.709Z,3.97
2022-10-20T09:26:19.568Z,3.98
2022-10-20T09:28:14.729Z,3.98
2022-10-20T09:30:16.481Z,3.98
2022-10-20T09:32:44.758Z,3.98
2022-10-20T09:36:21.075Z,3.99
2022-10-20T09:38:22.077Z,3.99
2022-10-20T09:40:23.327Z,3.99
2022-10-20T09:42:24.410Z,3.99
2022-10-20T09:44:25.415Z,3.99
2022-10-20T09:46:27.291Z,3.99
2022-10-20T09:48:28.685Z,3.99
2022-10-20T09:52:31.486Z,4
2022-10-20T09:54:32.806Z,3.99
2022-10-20T09:56:34.110Z,4
2022-10-20T09:58:35.614Z,4
2022-10-20T10:00:37.780Z,4
2022-10-20T10:02:39.061Z,4
2022-10-20T10:04:48.284Z,4
2022-10-20T10:08:42.837Z,4.01
2022-10-20T10:10:43.756Z,4
2022-10-20T10:12:45.622Z,4
2022-10-20T10:14:46.590Z,4.01
2022-10-20T10:18:49.382Z,4.02
2022-10-20T10:20:50.489Z,4.02
2022-10-20T10:24:54.409Z,4.02
2022-10-20T10:26:55.170Z,4.03
2022-10-20T10:28:56.399Z,4.04
2022-10-20T10:30:58.008Z,4.05
2022-10-20T10:35:00.757Z,4.06
2022-10-20T10:37:02.068Z,4.06
2022-10-20T10:39:02.891Z,4.06
2022-10-20T10:41:04.050Z,4.07
2022-10-20T10:43:05.493Z,4.07
2022-10-20T10:45:06.414Z,4.08
2022-10-20T10:47:07.936Z,4.08
2022-10-20T10:49:10.283Z,4.08
2022-10-20T10:51:11.233Z,4.08
2022-10-20T10:53:13.024Z,4.08
2022-10-20T10:55:25.796Z,4.08
2022-10-20T10:57:16.388Z,4.09
2022-10-20T11:01:18.701Z,4.1
2022-10-20T11:03:20.230Z,4.1
2022-10-20T11:05:21.705Z,4.1
2022-10-20T11:07:23.501Z,4.11
2022-10-20T11:09:24.850Z,4.11
2022-10-20T11:11:26.396Z,4.09
2022-10-20T11:13:27.293Z,4.09
2022-10-20T11:17:30.241Z,4.09
2022-10-20T11:19:31.824Z,4.09
2022-10-20T11:25:35.490Z,4.09
2022-10-20T11:27:37.235Z,4.08
2022-10-20T11:29:38.687Z,4.09
2022-10-20T11:31:39.626Z,4.09
2022-10-20T11:33:41.464Z,4.09
2022-10-20T11:35:41.820Z,4.1
2022-10-20T11:37:42.674Z,4.12
2022-10-20T11:39:44.057Z,4.12
2022-10-20T11:41:45.421Z,4.13
2022-10-20T11:43:47.026Z,4.14
2022-10-20T11:45:48.553Z,4.14
2022-10-20T11:49:51.560Z,4.14
2022-10-20T11:51:52.903Z,4.14
2022-10-20T11:53:54.059Z,4.14
2022-10-20T11:55:55.510Z,4.15
2022-10-20T11:59:58.516Z,4.16
2022-10-20T12:01:59.650Z,4.16
2022-10-20T12:04:01.431Z,4.16
2022-10-20T12:06:05.148Z,4.16
2022-10-20T12:08:17.843Z,4.16
2022-10-20T12:10:04.768Z,4.16
2022-10-20T12:12:06.435Z,4.17
2022-10-20T12:16:17.586Z,4.17
2022-10-20T12:18:10.423Z,4.17
2022-10-20T12:20:12.046Z,4.17
2022-10-20T12:22:12.875Z,4.17
2022-10-20T12:24:14.388Z,4.18
2022-10-20T12:26:15.281Z,4.18
2022-10-20T12:28:16.661Z,4.18
2022-10-20T12:32:19.503Z,4.18
2022-10-20T12:34:20.384Z,4.18
2022-10-20T12:36:21.466Z,4.19
2022-10-20T12:38:23.254Z,4.18
2022-10-20T12:42:25.784Z,4.18
2022-10-20T12:44:27.086Z,4.18
2022-10-20T12:46:28.286Z,4.19
2022-10-20T12:48:29.971Z,4.19
2022-10-20T12:50:31.155Z,4.18
2022-10-20T12:52:32.337Z,4.18
2022-10-20T12:54:33.237Z,4.17
2022-10-20T12:58:35.939Z,4.18
2022-10-20T13:00:37.665Z,4.18
2022-10-20T13:04:41.906Z,4.18
2022-10-20T13:06:41.675Z,4.18
2022-10-20T13:08:43.159Z,4.18
2022-10-20T13:10:44.861Z,4.18
2022-10-20T13:14:47.335Z,4.18
2022-10-20T13:16:48.865Z,4.19
2022-10-20T13:18:50.699Z,4.18
2022-10-20T13:20:51.844Z,4.18
2022-10-20T13:22:53.325Z,4.18
2022-10-20T13:24:56.041Z,4.17
2022-10-20T13:26:55.747Z,4.17
2022-10-20T13:28:57.410Z,4.18
2022-10-20T13:30:58.294Z,4.17
2022-10-20T13:33:11.555Z,4.17
2022-10-20T13:35:00.346Z,4.17
2022-10-20T13:37:01.420Z,4.17
2022-10-20T13:41:04.218Z,4.17
2022-10-20T13:45:07.268Z,4.17
2022-10-20T13:47:08.296Z,4.17
2022-10-20T13:49:09.207Z,4.17
2022-10-20T13:53:11.390Z,4.17
2022-10-20T13:55:12.894Z,4.17
2022-10-20T13:57:13.790Z,4.17
2022-10-20T13:59:15.147Z,4.17
2022-10-20T14:03:17.413Z,4.17
2022-10-20T14:05:18.989Z,4.16
2022-10-20T14:07:20.573Z,4.17
2022-10-20T14:09:21.996Z,4.17
2022-10-20T14:10:05.791Z,4.16
2022-10-20T14:12:06.945Z,4.17
2022-10-20T14:14:08.146Z,4.16
2022-10-20T14:16:09.553Z,4.17
2022-10-20T14:18:10.555Z,4.16
2022-10-20T14:20:11.693Z,4.16
2022-10-20T14:24:13.923Z,4.16
2022-10-20T14:26:15.465Z,4.16
2022-10-20T14:28:17.080Z,4.16
2022-10-20T14:30:18.723Z,4.16
2022-10-20T14:32:20.538Z,4.16
2022-10-20T14:36:23.273Z,4.16
2022-10-20T14:40:25.248Z,4.16
2022-10-20T14:42:26.554Z,4.16
2022-10-20T14:44:31.273Z,4.16
2022-10-20T14:46:28.676Z,4.16
2022-10-20T14:50:31.548Z,4.16
2022-10-20T14:52:32.806Z,4.16
2022-10-20T14:56:35.771Z,4.16
2022-10-20T15:00:38.333Z,4.16
2022-10-20T15:02:39.980Z,4.16
2022-10-20T15:06:42.627Z,4.16
2022-10-20T15:08:44.376Z,4.16
2022-10-20T15:10:45.757Z,4.15
2022-10-20T15:12:47.404Z,4.16
2022-10-20T15:14:48.325Z,4.16
2022-10-20T15:16:49.305Z,4.15
2022-10-20T15:18:50.296Z,4.16
2022-10-20T15:22:53.495Z,4.15
2022-10-20T15:24:54.559Z,4.15
2022-10-20T15:26:55.722Z,4.15
2022-10-20T15:28:56.829Z,4.15
2022-10-20T15:30:57.762Z,4.15
2022-10-20T15:32:58.912Z,4.15
2022-10-20T15:35:00.533Z,4.15
2022-10-20T15:39:02.977Z,4.15
2022-10-20T15:41:04.379Z,4.15
2022-10-20T15:43:05.567Z,4.15
2022-10-20T15:45:06.891Z,4.15
2022-10-20T15:49:09.280Z,4.15
2022-10-20T15:51:10.592Z,4.15
2022-10-20T15:55:13.266Z,4.14
2022-10-20T15:57:14.554Z,4.15
2022-10-20T15:59:16.301Z,4.15
2022-10-20T16:01:17.450Z,4.15
2022-10-20T16:05:20.942Z,4.14
2022-10-20T16:07:22.438Z,4.14
2022-10-20T16:09:23.486Z,4.14
2022-10-20T16:11:25.147Z,4.14
2022-10-20T16:13:26.748Z,4.14
2022-10-20T16:15:30.350Z,4.14
2022-10-20T16:17:29.853Z,4.14
2022-10-20T16:21:33.406Z,4.14
2022-10-20T16:23:34.348Z,4.14
2022-10-20T16:25:35.385Z,4.14
2022-10-20T16:27:37.134Z,4.14
2022-10-20T16:31:39.178Z,4.14
2022-10-20T16:33:41.049Z,4.14
2022-10-20T16:37:44.019Z,4.14
2022-10-20T16:39:45.329Z,4.14
2022-10-20T16:41:46.955Z,4.14
2022-10-20T16:43:48.505Z,4.14
2022-10-20T16:47:50.845Z,4.14
2022-10-20T16:49:52.224Z,4.14
2022-10-20T16:53:57.258Z,4.14
2022-10-20T16:55:56.345Z,4.14
2022-10-20T16:57:58.075Z,4.14
2022-10-20T16:59:59.088Z,4.13
2022-10-20T17:04:01.871Z,4.13
2022-10-20T17:06:02.864Z,4.13
2022-10-20T17:08:04.047Z,4.13
2022-10-20T17:10:05.254Z,4.14
2022-10-20T17:14:08.022Z,4.13
2022-10-20T17:16:09.235Z,4.13
2022-10-20T17:18:10.428Z,4.13
2022-10-20T17:20:11.477Z,4.13
2022-10-20T17:22:12.822Z,4.13
2022-10-20T17:24:14.407Z,4.13
2022-10-20T17:26:15.815Z,4.13
2022-10-20T17:30:18.869Z,4.13
2022-10-20T17:32:20.361Z,4.13
2022-10-20T17:34:22.247Z,4.13
2022-10-20T17:36:24.141Z,4.13
2022-10-20T17:38:25.704Z,4.13
2022-10-20T17:40:26.813Z,4.13
2022-10-20T17:42:27.960Z,4.13
2022-10-20T17:46:30.684Z,4.13
2022-10-20T17:48:32.164Z,4.13
2022-10-20T17:50:33.191Z,4.13
2022-10-20T17:52:35.199Z,4.13
2022-10-20T17:54:36.136Z,4.13
2022-10-20T17:56:37.490Z,4.12
2022-10-20T17:58:38.406Z,4.13
2022-10-20T18:02:41.159Z,4.12
2022-10-20T18:04:42.793Z,4.12
2022-10-20T18:06:44.045Z,4.12
2022-10-20T18:08:45.366Z,4.12
2022-10-20T18:12:48.156Z,4.12
2022-10-20T18:14:49.175Z,4.12
2022-10-20T18:18:51.293Z,4.12
2022-10-20T18:20:53.078Z,4.12
2022-10-20T18:22:54.937Z,4.12
2022-10-20T18:24:56.439Z,4.12
2022-10-20T18:28:59.200Z,4.12
2022-10-20T18:31:01.066Z,4.12
2022-10-20T18:33:02.832Z,4.12
2022-10-20T18:35:04.035Z,4.12
2022-10-20T18:37:05.745Z,4.12
2022-10-20T18:39:06.933Z,4.12
2022-10-20T18:41:08.584Z,4.12
2022-10-20T18:45:11.463Z,4.12
2022-10-20T18:47:20.476Z,4.12
2022-10-20T18:49:14.102Z,4.12
2022-10-20T18:51:15.935Z,4.12
2022-10-20T18:55:19.011Z,4.12
2022-10-20T18:57:20.384Z,4.11
2022-10-20T18:59:21.311Z,4.12
2022-10-20T19:01:22.523Z,4.12
2022-10-20T19:03:23.525Z,4.11
2022-10-20T19:07:26.176Z,4.12
2022-10-20T19:11:29.622Z,4.12
2022-10-20T19:13:30.644Z,4.11
2022-10-20T19:15:32.174Z,4.11
2022-10-20T19:17:34.058Z,4.11
2022-10-20T19:19:35.650Z,4.11
2022-10-20T19:21:37.521Z,4.11
2022-10-20T19:27:42.299Z,4.11
2022-10-20T19:29:43.680Z,4.11
2022-10-20T19:31:44.784Z,4.11
2022-10-20T19:33:45.828Z,4.11
2022-10-20T19:37:47.946Z,4.11
2022-10-20T19:39:49.635Z,4.11
2022-10-20T19:43:53.017Z,4.11
2022-10-20T19:45:54.405Z,4.11
2022-10-20T19:47:55.746Z,4.11
2022-10-20T19:49:57.405Z,4.11
2022-10-20T19:54:01.073Z,4.11
2022-10-20T19:56:02.312Z,4.11
2022-10-20T19:58:04.153Z,4.1
2022-10-20T20:00:04.993Z,4.1
2022-10-20T20:02:06.190Z,4.1
2022-10-20T20:04:07.522Z,4.11
2022-10-20T20:06:09.311Z,4.1
2022-10-20T20:10:12.424Z,4.1
2022-10-20T20:12:13.440Z,4.1
2022-10-20T20:14:14.988Z,4.1
2022-10-20T20:16:16.777Z,4.1
2022-10-20T20:18:18.271Z,4.1
2022-10-20T20:20:20.142Z,4.1
2022-10-20T20:22:21.410Z,4.1
2022-10-20T20:26:24.142Z,4.1
2022-10-20T20:28:25.039Z,4.1
2022-10-20T20:30:25.965Z,4.1
2022-10-20T20:32:27.148Z,4.1
2022-10-20T20:36:29.612Z,4.1
2022-10-20T20:38:30.524Z,4.1
2022-10-20T20:42:32.976Z,4.1
2022-10-20T20:44:34.827Z,4.1
2022-10-20T20:46:36.052Z,4.1
2022-10-20T20:48:37.107Z,4.1
2022-10-20T20:52:39.350Z,4.1
2022-10-20T20:54:40.364Z,4.1
2022-10-20T20:55:24.165Z,4.1
2022-10-20T20:57:25.384Z,4.1
2022-10-20T20:59:27.132Z,4.1
2022-10-20T21:03:30.102Z,4.1
2022-10-20T21:05:31.342Z,4.1
2022-10-20T21:07:32.992Z,4.09
2022-10-20T21:09:33.995Z,4.09
2022-10-20T21:13:36.084Z,4.1
2022-10-20T21:15:37.971Z,4.09
2022-10-20T21:19:41.049Z,4.09
2022-10-20T21:21:42.279Z,4.09
2022-10-20T21:23:43.445Z,4.09
2022-10-20T21:25:44.703Z,4.09
2022-10-20T21:29:47.264Z,4.09
2022-10-20T21:31:48.461Z,4.09
2022-10-20T21:33:49.366Z,4.09
2022-10-20T21:35:50.436Z,4.09
2022-10-20T21:37:52.317Z,4.09
2022-10-20T21:39:53.838Z,4.09
2022-10-20T21:41:55.072Z,4.09
2022-10-20T21:45:57.237Z,4.09
2022-10-20T21:47:58.248Z,4.09
2022-10-20T21:49:59.951Z,4.09
2022-10-20T21:52:01.666Z,4.08
2022-10-20T21:54:02.690Z,4.09
2022-10-20T21:56:04.298Z,4.09
2022-10-20T21:58:06.106Z,4.09
2022-10-20T22:02:08.949Z,4.08
2022-10-20T22:04:10.364Z,4.09
2022-10-20T22:06:11.662Z,4.08
2022-10-20T22:08:12.708Z,4.08
2022-10-20T22:12:15.077Z,4.08
2022-10-20T22:14:16.933Z,4.08
2022-10-20T22:18:20.321Z,4.08
2022-10-20T22:20:21.777Z,4.08
2022-10-20T22:22:22.809Z,4.08
2022-10-20T22:24:23.998Z,4.08
2022-10-20T22:28:26.394Z,4.08
2022-10-20T22:30:27.487Z,4.08
2022-10-20T22:34:30.403Z,4.08
2022-10-20T22:36:32.188Z,4.08
2022-10-20T22:38:33.885Z,4.08
2022-10-20T22:40:35.336Z,4.08
2022-10-20T22:44:37.952Z,4.08
2022-10-20T22:46:39.230Z,4.08
2022-10-20T22:48:40.496Z,4.08
2022-10-20T22:50:41.973Z,4.08
2022-10-20T22:54:45.232Z,4.08
2022-10-20T22:56:46.653Z,4.08
2022-10-20T22:58:47.665Z,4.08
2022-10-20T23:00:49.351Z,4.08
2022-10-20T23:02:50.877Z,4.08
2022-10-20T23:04:52.666Z,4.08
2022-10-20T23:06:54.147Z,4.07
2022-10-20T23:10:56.527Z,4.08
2022-10-20T23:12:58.311Z,4.07
2022-10-20T23:14:59.733Z,4.08
2022-10-20T23:17:00.850Z,4.07
2022-10-20T23:19:02.466Z,4.07
2022-10-20T23:21:03.858Z,4.07
2022-10-20T23:23:04.901Z,4.07
2022-10-20T23:25:06.103Z,4.07
2022-10-20T23:29:08.809Z,4.07
2022-10-20T23:33:11.626Z,4.07
2022-10-20T23:35:12.571Z,4.07
2022-10-20T23:37:13.678Z,4.07
2022-10-20T23:39:15.224Z,4.07
2022-10-20T23:43:17.056Z,4.07
2022-10-20T23:45:18.236Z,4.07
2022-10-20T23:47:19.513Z,4.07
2022-10-20T23:49:21.365Z,4.07
2022-10-20T23:53:23.861Z,4.06
2022-10-20T23:55:24.844Z,4.06
2022-10-20T23:59:26.887Z,4.06
